Frankston Lake, Texas
Current Conditions -  °F | °C
As of 11:15 PM on Saturday 25 Oct 2014 (Local Time) from KPSN Reporting Station
Clear Clear  
Wind Chill: 70°   Ceiling: Unl
Heat Index: 70°   Visibility: 10mi
Dew Point: 64°   Wind: 3mph
Humidity: 81%   Direction: 140°SE
Pressure: 30.09"   Gusts: NA
Location:  32.0056°N, 95.5543°W
Report Text: KPSN 260415Z AUTO 14003KT 10SM CLR 21/17 A3009 RMK AO2 T02100177
Loading
Personal Weather Stations






























Interactive Weather Map
Tropical Storm Tracking
New forecast layout! Learn more

10-Day Weather Forecast

Advertisements
Track Severe Weather on mobile